Time;durP1;ratioP1;P1;durP2;ratioP2;P2;SDS_P1;SDS_P2;PMS_P1;PMS_P2;Temp;Humidity;BMP_temperature;BMP_pressure;BME280_temperature;BME280_humidity;BME280_pressure;Samples;Min_cycle;Max_cycle;Signal;HPM_P1;HPM_P2
2022/02/13 00:00:29;;;;;;;8.65;4.68;;;;;;;-0.13;66.40;101894.38;5116324;28;20471;-75
2022/02/13 00:02:58;;;;;;;11.13;5.15;;;;;;;-0.25;67.11;101890.78;5115532;28;20046;-75
2022/02/13 00:05:28;;;;;;;10.05;4.60;;;;;;;-0.16;65.27;101891.75;5116049;28;20477;-75
2022/02/13 00:07:56;;;;;;;9.65;4.43;;;;;;;-0.02;65.12;101882.25;5115574;28;20477;-75
2022/02/13 00:10:26;;;;;;;8.77;5.18;;;;;;;-0.10;66.35;101889.16;5097736;28;20048;-75
2022/02/13 00:12:54;;;;;;;9.32;4.82;;;;;;;-0.06;66.20;101888.34;5115716;28;20075;-75
2022/02/13 00:15:22;;;;;;;10.43;4.82;;;;;;;-0.26;67.35;101883.78;5115810;28;20040;-75
2022/02/13 00:17:50;;;;;;;9.07;4.60;;;;;;;-0.38;68.71;101881.91;5097253;28;20048;-75
2022/02/13 00:20:24;;;;;;;12.90;5.93;;;;;;;-0.28;67.36;101883.75;5115874;28;20098;-75
2022/02/13 00:22:52;;;;;;;13.55;5.53;;;;;;;-0.31;68.33;101878.47;5115507;28;20040;-75
2022/02/13 00:25:21;;;;;;;12.90;5.70;;;;;;;-0.30;68.62;101886.34;5115364;28;20511;-75
2022/02/13 00:27:50;;;;;;;10.55;5.47;;;;;;;-0.44;70.23;101881.81;5097093;28;20100;-75
2022/02/13 00:30:19;;;;;;;11.10;5.53;;;;;;;-0.55;70.94;101873.84;5115693;28;20047;-75
2022/02/13 00:32:48;;;;;;;10.95;5.65;;;;;;;-0.42;71.17;101878.34;5115329;28;20043;-79
2022/02/13 00:35:17;;;;;;;10.60;5.85;;;;;;;-0.58;72.07;101873.78;5115178;28;20050;-75
2022/02/13 00:37:45;;;;;;;11.07;6.00;;;;;;;-0.71;73.78;101875.41;5097064;28;20101;-75
2022/02/13 00:40:14;;;;;;;12.50;6.07;;;;;;;-0.65;73.66;101872.00;5097170;28;20067;-75
2022/02/13 00:42:42;;;;;;;12.75;6.68;;;;;;;-0.75;74.20;101873.63;5115238;28;20047;-75
2022/02/13 00:45:12;;;;;;;15.05;6.43;;;;;;;-0.62;73.65;101872.88;5114998;28;20054;-75
2022/02/13 00:47:43;;;;;;;11.52;5.93;;;;;;;-0.47;73.23;101879.19;5115315;28;20063;-75
2022/02/13 00:50:11;;;;;;;13.88;6.82;;;;;;;-0.53;73.65;101879.09;5115136;28;20122;-75
2022/02/13 00:52:39;;;;;;;13.82;7.25;;;;;;;-0.54;72.59;101872.09;5115101;28;20549;-75
2022/02/13 00:55:08;;;;;;;12.23;6.60;;;;;;;-0.60;74.33;101872.91;5114575;28;20071;-75
2022/02/13 00:57:37;;;;;;;14.52;6.70;;;;;;;-0.78;75.67;101870.94;5096920;28;20044;-74
2022/02/13 01:00:06;;;;;;;15.07;6.90;;;;;;;-0.59;73.61;101866.78;5114744;28;20043;-74
2022/02/13 01:02:36;;;;;;;14.00;7.25;;;;;;;-0.50;73.60;101863.41;5114961;28;20044;-75
2022/02/13 01:05:04;;;;;;;13.00;6.85;;;;;;;-0.54;73.31;101872.97;5114831;28;20430;-73
2022/02/13 01:07:32;;;;;;;14.90;7.13;;;;;;;-0.69;75.00;101871.06;5114613;28;20081;-75
2022/02/13 01:10:01;;;;;;;12.50;6.75;;;;;;;-0.71;75.27;101867.53;5114468;28;20047;-73
2022/02/13 01:12:31;;;;;;;15.45;7.45;;;;;;;-0.77;75.26;101864.88;5114761;28;20044;-75
2022/02/13 01:14:59;;;;;;;14.00;7.50;;;;;;;-0.83;75.71;101864.78;5114513;28;20036;-73
2022/02/13 01:17:28;;;;;;;14.65;7.65;;;;;;;-0.97;76.30;101859.34;5096317;28;20054;-75
2022/02/13 01:19:57;;;;;;;12.05;6.78;;;;;;;-0.86;75.25;101856.91;5114436;28;20035;-75
2022/02/13 01:22:25;;;;;;;13.38;7.45;;;;;;;-0.90;75.35;101855.97;5114467;28;20126;-74
2022/02/13 01:24:54;;;;;;;15.55;7.20;;;;;;;-0.98;75.96;101857.59;5113971;28;20126;-76
2022/02/13 01:27:22;;;;;;;13.77;7.57;;;;;;;-0.92;75.58;101851.56;5114522;28;20092;-75
2022/02/13 01:29:51;;;;;;;15.20;7.80;;;;;;;-0.97;75.95;101855.88;5114410;28;20097;-75
2022/02/13 01:32:19;;;;;;;12.38;7.15;;;;;;;-0.97;76.22;101848.00;5114474;28;20504;-75
2022/02/13 01:34:47;;;;;;;15.82;7.85;;;;;;;-0.93;76.29;101855.06;5114010;28;20047;-75
2022/02/13 01:37:17;;;;;;;13.32;7.40;;;;;;;-0.91;76.38;101848.97;5114010;28;20092;-75
2022/02/13 01:39:47;;;;;;;15.82;8.23;;;;;;;-0.94;76.23;101854.19;5114344;28;20040;-75
2022/02/13 01:42:15;;;;;;;17.90;8.30;;;;;;;-1.08;77.68;101847.00;5113609;28;20043;-75
2022/02/13 01:44:44;;;;;;;15.02;7.57;;;;;;;-1.11;78.53;101841.72;5113895;28;20097;-75
2022/02/13 01:47:12;;;;;;;17.27;8.07;;;;;;;-1.05;77.95;101844.44;5113944;28;20906;-75
2022/02/13 01:49:41;;;;;;;14.05;7.82;;;;;;;-1.03;78.42;101832.22;5114413;28;20048;-75
2022/02/13 01:52:10;;;;;;;15.35;7.90;;;;;;;-1.01;78.47;101840.97;5113870;28;20074;-75
2022/02/13 01:54:40;;;;;;;16.27;8.20;;;;;;;-1.05;78.59;101833.97;5114029;28;20451;-75
2022/02/13 01:57:11;;;;;;;16.77;8.25;;;;;;;-1.09;79.69;101826.91;5113931;28;20043;-75
2022/02/13 01:59:40;;;;;;;15.02;8.30;;;;;;;-1.29;81.52;101830.16;5113722;28;20044;-74
2022/02/13 02:02:08;;;;;;;17.38;8.48;;;;;;;-1.29;82.34;101824.91;5113309;28;20033;-75
2022/02/13 02:04:37;;;;;;;17.50;8.27;;;;;;;-1.25;82.01;101821.50;5113957;28;20096;-74
2022/02/13 02:07:05;;;;;;;16.48;8.73;;;;;;;-1.31;82.15;101820.53;5113161;28;20135;-75
2022/02/13 02:09:33;;;;;;;16.25;8.55;;;;;;;-1.32;82.64;101826.63;5113776;28;20400;-74
2022/02/13 02:12:05;;;;;;;16.38;8.68;;;;;;;-1.51;83.86;101820.25;5113596;28;20047;-74
2022/02/13 02:14:33;;;;;;;17.20;8.60;;;;;;;-1.48;83.93;101815.06;5113901;28;20051;-74
2022/02/13 02:17:01;;;;;;;20.65;8.77;;;;;;;-1.36;82.16;101814.34;5095242;28;20524;-74
2022/02/13 02:19:32;;;;;;;18.55;9.30;;;;;;;-1.42;82.97;101812.53;5113401;28;20067;-74
2022/02/13 02:22:00;;;;;;;16.08;8.98;;;;;;;-1.49;82.84;101811.56;5113638;28;20059;-74
2022/02/13 02:24:29;;;;;;;17.73;8.65;;;;;;;-1.42;82.31;101809.91;5113559;28;20071;-74
2022/02/13 02:26:58;;;;;;;19.40;9.52;;;;;;;-1.45;81.94;101802.91;5113354;28;20051;-75
2022/02/13 02:29:26;;;;;;;21.88;9.20;;;;;;;-1.48;82.73;101807.19;5113616;28;20067;-74
2022/02/13 02:31:55;;;;;;;18.63;9.23;;;;;;;-1.53;83.51;101801.03;5113694;28;20127;-74
2022/02/13 02:34:24;;;;;;;16.88;9.48;;;;;;;-1.50;83.70;101799.34;5113734;28;20085;-75
2022/02/13 02:36:52;;;;;;;20.05;9.23;;;;;;;-1.51;83.98;101789.72;5113545;28;20048;-74
2022/02/13 02:39:20;;;;;;;19.17;9.13;;;;;;;-1.71;85.65;101788.56;5113220;28;20044;-75
2022/02/13 02:41:52;;;;;;;20.13;9.85;;;;;;;-1.86;88.29;101794.44;5113644;28;20465;-74
2022/02/13 02:44:20;;;;;;;20.85;9.02;;;;;;;-1.58;85.74;101789.63;5113287;28;20040;-74
2022/02/13 02:46:49;;;;;;;16.88;9.15;;;;;;;-1.66;85.99;101791.25;5113640;28;20445;-74
2022/02/13 02:49:19;;;;;;;19.88;10.10;;;;;;;-1.67;85.43;101789.47;5112892;28;20595;-75
2022/02/13 02:51:48;;;;;;;17.67;9.25;;;;;;;-1.69;86.21;101786.84;5095334;28;20044;-74
2022/02/13 02:54:16;;;;;;;20.27;10.02;;;;;;;-1.71;86.49;101782.47;5112912;28;20043;-74
2022/02/13 02:56:44;;;;;;;19.85;9.40;;;;;;;-1.80;87.09;101791.94;5113360;28;20085;-74
2022/02/13 02:59:14;;;;;;;17.88;9.50;;;;;;;-1.74;87.40;101789.41;5113092;28;20043;-74
2022/02/13 03:01:42;;;;;;;20.00;9.15;;;;;;;-1.67;86.30;101779.03;5113313;28;20050;-74
2022/02/13 03:04:10;;;;;;;21.60;9.70;;;;;;;-1.71;86.66;101774.63;5112900;28;20044;-74
2022/02/13 03:06:41;;;;;;;20.48;9.23;;;;;;;-1.74;86.16;101772.81;5113448;28;20043;-74
2022/02/13 03:09:09;;;;;;;18.63;9.77;;;;;;;-1.80;86.38;101768.38;5113134;28;20065;-74
2022/02/13 03:11:40;;;;;;;20.35;9.68;;;;;;;-1.94;87.62;101769.91;5113449;28;20078;-74
2022/02/13 03:14:10;;;;;;;20.35;9.35;;;;;;;-1.94;88.27;101769.91;5113098;28;20054;-74
2022/02/13 03:16:39;;;;;;;18.90;9.70;;;;;;;-1.93;87.17;101770.78;5113195;28;20046;-74
2022/02/13 03:19:08;;;;;;;23.00;9.38;;;;;;;-1.91;86.74;101769.97;5114608;28;20439;-75
2022/02/13 03:21:36;;;;;;;20.27;9.80;;;;;;;-2.10;88.46;101768.81;5116785;28;20070;-75
2022/02/13 03:24:07;;;;;;;20.40;10.20;;;;;;;-2.28;90.58;101767.63;5116628;28;20126;-75
2022/02/13 03:26:35;;;;;;;19.85;9.88;;;;;;;-2.34;90.11;101764.06;5116870;28;20374;-75
2022/02/13 03:29:04;;;;;;;20.33;9.93;;;;;;;-2.17;89.20;101761.72;5098297;28;20052;-75
2022/02/13 03:31:32;;;;;;;18.00;9.32;;;;;;;-2.11;88.20;101764.44;5117056;28;20043;-75
2022/02/13 03:34:02;;;;;;;18.40;9.48;;;;;;;-2.05;88.34;101747.94;5116414;28;20047;-75
2022/02/13 03:36:30;;;;;;;16.83;9.23;;;;;;;-2.02;87.68;101755.88;5116688;28;20040;-75
2022/02/13 03:38:59;;;;;;;20.08;10.13;;;;;;;-1.96;86.93;101752.44;5116311;28;20040;-75
2022/02/13 03:41:27;;;;;;;19.50;10.65;;;;;;;-1.98;87.15;101760.28;5098289;28;20050;-75
2022/02/13 03:43:56;;;;;;;19.23;9.25;;;;;;;-2.08;87.60;101756.63;5116199;28;20062;-75
2022/02/13 03:46:24;;;;;;;19.48;9.85;;;;;;;-2.15;88.07;101759.13;5116548;28;20039;-75
2022/02/13 03:48:52;;;;;;;21.05;10.13;;;;;;;-2.21;88.59;101759.03;5116450;28;20055;-73
2022/02/13 03:51:22;;;;;;;19.95;9.73;;;;;;;-2.04;87.84;101760.16;5115868;28;20054;-74
2022/02/13 03:53:50;;;;;;;22.13;9.95;;;;;;;-2.07;87.87;101758.38;5098120;28;20088;-73
2022/02/13 03:56:19;;;;;;;20.88;9.70;;;;;;;-2.20;88.41;101751.22;5116129;28;20074;-75
2022/02/13 03:58:47;;;;;;;19.30;9.77;;;;;;;-2.18;88.80;101757.34;5116316;28;20122;-74
2022/02/13 04:01:15;;;;;;;17.70;9.60;;;;;;;-2.12;87.85;101757.47;5097977;28;20047;-75
2022/02/13 04:03:43;;;;;;;18.52;10.00;;;;;;;-2.28;88.44;101755.44;5116040;28;20445;-74
2022/02/13 04:06:14;;;;;;;22.75;10.52;;;;;;;-2.09;87.65;101756.63;5115905;28;20046;-74
2022/02/13 04:08:44;;;;;;;19.88;10.10;;;;;;;-2.10;87.02;101736.56;5097768;28;20100;-75
2022/02/13 04:11:13;;;;;;;20.85;10.30;;;;;;;-2.37;88.78;101740.50;5115662;28;20044;-74
2022/02/13 04:13:42;;;;;;;19.33;9.75;;;;;;;-2.27;88.58;101738.03;5115689;28;20397;-74
2022/02/13 04:16:10;;;;;;;21.92;10.45;;;;;;;-2.09;86.88;101731.34;5115240;28;20047;-74
2022/02/13 04:18:38;;;;;;;19.58;9.68;;;;;;;-2.10;87.50;101744.41;5115855;28;20122;-74
2022/02/13 04:21:06;;;;;;;18.48;9.65;;;;;;;-1.91;86.69;101735.09;5115636;28;20074;-73
2022/02/13 04:23:35;;;;;;;18.33;9.60;;;;;;;-1.97;86.27;101735.88;5115803;28;20085;-74
2022/02/13 04:26:04;;;;;;;19.95;9.85;;;;;;;-2.10;87.72;101729.59;5097660;28;20081;-75
2022/02/13 04:28:33;;;;;;;19.30;9.85;;;;;;;-2.12;88.38;101735.66;5115793;28;20047;-74
2022/02/13 04:31:01;;;;;;;19.70;9.55;;;;;;;-2.19;87.91;101732.06;5114919;28;20047;-74
2022/02/13 04:33:30;;;;;;;18.90;9.93;;;;;;;-2.28;88.39;101731.03;5115464;28;20051;-75
2022/02/13 04:35:58;;;;;;;20.33;9.95;;;;;;;-2.44;89.49;101730.78;5115529;28;20039;-74
2022/02/13 04:38:27;;;;;;;19.83;9.93;;;;;;;-2.53;91.02;101724.53;5115270;28;20050;-74
2022/02/13 04:40:56;;;;;;;19.00;9.43;;;;;;;-2.71;90.74;101727.69;5115429;28;20530;-74
2022/02/13 04:43:26;;;;;;;20.45;10.25;;;;;;;-2.82;94.75;101722.28;5114798;28;20043;-75
2022/02/13 04:45:55;;;;;;;20.90;9.75;;;;;;;-2.81;94.29;101723.16;5115310;28;20468;-72
2022/02/13 04:48:26;;;;;;;19.63;9.18;;;;;;;-2.72;93.91;101725.94;5115029;28;20069;-74
2022/02/13 04:50:54;;;;;;;17.42;9.90;;;;;;;-2.77;94.71;101714.56;5115251;28;20503;-74
2022/02/13 04:53:22;;;;;;;19.85;10.07;;;;;;;-3.00;97.76;101722.84;5114582;28;20054;-74
2022/02/13 04:55:51;;;;;;;21.45;9.65;;;;;;;-2.81;97.42;101718.81;5114844;28;20043;-74
2022/02/13 04:58:20;;;;;;;19.52;9.95;;;;;;;-2.86;97.60;101715.28;5114760;28;20035;-74
2022/02/13 05:00:49;;;;;;;18.48;9.77;;;;;;;-2.90;99.16;101716.03;5114645;28;20054;-74
2022/02/13 05:03:18;;;;;;;20.10;9.98;;;;;;;-2.91;99.64;101712.56;5114680;28;20124;-74
2022/02/13 05:05:46;;;;;;;19.02;9.68;;;;;;;-2.82;98.38;101706.63;5114954;28;20044;-74
2022/02/13 05:08:14;;;;;;;22.73;9.88;;;;;;;-2.94;99.48;101709.03;5114562;28;20050;-74
2022/02/13 05:10:43;;;;;;;20.13;9.82;;;;;;;-3.02;100.00;101698.44;5114770;28;20093;-74
2022/02/13 05:13:11;;;;;;;20.27;9.25;;;;;;;-3.10;100.00;101705.25;5114529;28;20035;-74
2022/02/13 05:15:42;;;;;;;20.33;10.15;;;;;;;-3.11;100.00;101713.06;5096420;28;20058;-74
2022/02/13 05:18:12;;;;;;;16.52;9.57;;;;;;;-3.10;100.00;101709.59;5114365;28;20097;-74
2022/02/13 05:20:40;;;;;;;20.23;10.23;;;;;;;-3.14;100.00;101713.00;5114265;28;20035;-73
2022/02/13 05:23:08;;;;;;;21.38;10.35;;;;;;;-3.21;100.00;101705.03;5114469;28;20043;-75
2022/02/13 05:25:36;;;;;;;19.45;9.98;;;;;;;-3.39;100.00;101696.84;5114387;28;20130;-74
2022/02/13 05:28:05;;;;;;;17.30;9.65;;;;;;;-3.19;100.00;101697.25;5114577;28;20085;-74
2022/02/13 05:30:33;;;;;;;17.58;9.40;;;;;;;-3.17;100.00;101698.19;5096114;28;20048;-74
2022/02/13 05:33:01;;;;;;;21.13;10.43;;;;;;;-3.14;100.00;101693.00;5114329;28;20051;-72
2022/02/13 05:35:31;;;;;;;17.85;9.43;;;;;;;-3.06;100.00;101701.84;5114332;28;20048;-74
2022/02/13 05:37:59;;;;;;;18.38;10.07;;;;;;;-3.13;100.00;101699.97;5114403;28;20040;-74
2022/02/13 05:40:27;;;;;;;18.52;9.50;;;;;;;-3.21;100.00;101691.13;5114107;28;20048;-74
2022/02/13 05:42:55;;;;;;;19.13;9.23;;;;;;;-3.24;100.00;101704.13;5095462;28;20043;-74
2022/02/13 05:45:24;;;;;;;19.40;9.20;;;;;;;-3.13;100.00;101699.09;5113862;28;20046;-74
2022/02/13 05:47:52;;;;;;;17.45;8.93;;;;;;;-3.19;100.00;101690.28;5114178;28;20055;-74
2022/02/13 05:50:21;;;;;;;18.13;9.98;;;;;;;-3.18;100.00;101704.25;5113695;28;20138;-73
2022/02/13 05:52:50;;;;;;;18.27;9.18;;;;;;;-3.11;100.00;101703.50;5095779;28;20059;-73
2022/02/13 05:55:18;;;;;;;17.38;9.50;;;;;;;-3.11;100.00;101702.59;5113741;28;20043;-74
2022/02/13 05:57:47;;;;;;;19.75;9.90;;;;;;;-3.15;100.00;101700.81;5113977;28;20424;-74
2022/02/13 06:00:16;;;;;;;18.08;9.40;;;;;;;-2.93;100.00;101709.03;5113680;28;20050;-74
2022/02/13 06:02:47;;;;;;;17.10;9.38;;;;;;;-2.90;100.00;101703.00;5114154;28;20126;-73
2022/02/13 06:05:17;;;;;;;16.73;9.38;;;;;;;-2.92;100.00;101710.81;5113627;28;20039;-73
2022/02/13 06:07:45;;;;;;;17.65;9.40;;;;;;;-2.90;100.00;101701.25;5113751;28;20066;-74
2022/02/13 06:10:15;;;;;;;17.55;9.30;;;;;;;-3.04;100.00;101709.72;5113585;28;20052;-73
2022/02/13 06:12:43;;;;;;;21.42;9.68;;;;;;;-3.08;100.00;101713.13;5095477;28;20104;-73
2022/02/13 06:15:12;;;;;;;17.80;9.10;;;;;;;-3.18;100.00;101705.13;5113464;28;20074;-75
2022/02/13 06:17:40;;;;;;;18.50;9.55;;;;;;;-3.15;100.00;101711.25;5113646;28;20066;-72
2022/02/13 06:20:10;;;;;;;18.92;8.90;;;;;;;-3.03;100.00;101722.78;5113445;28;20040;-74
2022/02/13 06:22:39;;;;;;;21.38;9.68;;;;;;;-3.02;100.00;101706.28;5113702;28;20488;-72
2022/02/13 06:25:08;;;;;;;19.25;9.82;;;;;;;-2.91;100.00;101716.91;5113660;28;20100;-73
2022/02/13 06:27:38;;;;;;;21.65;9.95;;;;;;;-2.86;100.00;101714.41;5095322;28;20086;-74
2022/02/13 06:30:07;;;;;;;17.65;9.82;;;;;;;-2.92;100.00;101710.81;5113658;28;20533;-74
2022/02/13 06:32:38;;;;;;;20.25;9.82;;;;;;;-3.00;100.00;101717.63;5113158;28;20149;-74
2022/02/13 06:35:07;;;;;;;22.95;10.93;;;;;;;-2.96;100.00;101714.22;5095805;28;20051;-73
2022/02/13 06:37:38;;;;;;;22.27;11.48;;;;;;;-2.84;100.00;101716.16;5113387;28;20082;-74
2022/02/13 06:40:08;;;;;;;22.45;12.13;;;;;;;-2.94;100.00;101711.63;5113611;28;20040;-73
2022/02/13 06:42:37;;;;;;;22.70;13.35;;;;;;;-2.81;100.00;101707.50;5113170;28;20035;-74
2022/02/13 06:45:07;;;;;;;25.67;13.15;;;;;;;-2.77;100.00;101715.44;5095255;28;20052;-73
2022/02/13 06:47:39;;;;;;;23.63;12.50;;;;;;;-2.88;100.00;101715.25;5113210;28;20059;-73
2022/02/13 06:50:10;;;;;;;24.17;12.77;;;;;;;-2.71;100.00;101714.63;5113538;28;20047;-73
2022/02/13 06:52:38;;;;;;;21.75;11.52;;;;;;;-2.72;99.53;101708.53;5094800;28;20093;-73
2022/02/13 06:55:07;;;;;;;17.55;10.45;;;;;;;-2.54;97.10;101710.59;5116578;28;20054;-73
2022/02/13 06:57:42;;;;;;;20.77;9.65;;;;;;;-2.48;96.28;101712.44;5098681;28;20075;-73
2022/02/13 07:00:13;;;;;;;19.63;9.70;;;;;;;-2.37;94.10;101713.47;5117448;28;20118;-73
2022/02/13 07:02:42;;;;;;;17.90;9.68;;;;;;;-2.45;93.86;101702.03;5116945;28;20067;-73
2022/02/13 07:05:10;;;;;;;20.38;9.80;;;;;;;-2.33;92.63;101710.03;5117031;28;20043;-73
2022/02/13 07:07:39;;;;;;;19.40;10.50;;;;;;;-2.18;92.04;101701.56;5098531;28;20100;-72
2022/02/13 07:10:08;;;;;;;20.63;10.95;;;;;;;-2.18;91.99;101693.72;5098938;28;20051;-74
2022/02/13 07:12:38;;;;;;;17.75;9.95;;;;;;;-2.13;92.73;101698.16;5116408;28;20043;-74
2022/02/13 07:15:07;;;;;;;18.30;9.98;;;;;;;-2.13;92.47;101698.16;5098605;28;20573;-74
2022/02/13 07:17:37;;;;;;;18.38;9.80;;;;;;;-1.83;88.99;101695.13;5116596;28;20079;-74
2022/02/13 07:20:08;;;;;;;17.23;8.88;;;;;;;-1.89;87.78;101696.75;5116583;28;20493;-74
2022/02/13 07:22:36;;;;;;;21.08;8.95;;;;;;;-1.90;88.18;101693.25;5116490;28;20624;-74
2022/02/13 07:25:06;;;;;;;18.38;8.20;;;;;;;-1.78;86.49;101687.31;5116656;28;20370;-74
2022/02/13 07:27:35;;;;;;;20.50;9.00;;;;;;;-1.66;85.67;101691.81;5116120;28;20484;-74
2022/02/13 07:30:05;;;;;;;14.77;8.55;;;;;;;-1.62;83.52;101688.41;5115906;28;20040;-74
2022/02/13 07:32:33;;;;;;;17.27;9.20;;;;;;;-1.60;82.10;101694.53;5097754;28;20049;-74
2022/02/13 07:35:03;;;;;;;14.27;9.13;;;;;;;-1.49;81.50;101691.16;5116399;28;20040;-74
2022/02/13 07:37:31;;;;;;;15.38;8.65;;;;;;;-1.34;80.92;101693.09;5115658;28;20134;-74
2022/02/13 07:40:00;;;;;;;17.63;8.60;;;;;;;-1.44;79.91;101691.25;5116139;28;20124;-73
2022/02/13 07:42:29;;;;;;;18.60;8.32;;;;;;;-1.36;78.66;101691.31;5116043;28;20121;-74
2022/02/13 07:44:57;;;;;;;16.48;8.60;;;;;;;-1.25;78.10;101690.59;5116430;28;20408;-73
2022/02/13 07:47:27;;;;;;;16.40;8.40;;;;;;;-1.12;76.97;101695.94;5097471;28;20100;-74
2022/02/13 07:50:00;;;;;;;15.07;8.13;;;;;;;-1.19;77.34;101689.75;5116524;28;20036;-74
2022/02/13 07:52:29;;;;;;;14.25;7.80;;;;;;;-1.09;75.18;101685.50;5116046;28;20097;-74
2022/02/13 07:54:58;;;;;;;13.82;7.70;;;;;;;-0.95;73.53;101684.78;5116214;28;20043;-74
2022/02/13 07:57:26;;;;;;;14.20;7.10;;;;;;;-0.79;72.01;101679.66;5115837;28;20039;-74
2022/02/13 07:59:55;;;;;;;15.23;7.72;;;;;;;-0.74;71.64;101678.84;5116063;28;20050;-74
2022/02/13 08:02:23;;;;;;;16.48;7.63;;;;;;;-0.62;70.20;101678.06;5097667;28;20043;-74
2022/02/13 08:04:51;;;;;;;13.35;7.18;;;;;;;-0.55;70.43;101673.78;5097248;28;20048;-74
2022/02/13 08:07:20;;;;;;;15.50;8.05;;;;;;;-0.59;70.50;101673.72;5115197;28;20039;-74
2022/02/13 08:09:50;;;;;;;14.15;7.60;;;;;;;-0.51;70.06;101667.66;5115910;28;20048;-74
2022/02/13 08:12:18;;;;;;;15.35;7.10;;;;;;;-0.48;68.18;101665.06;5097762;28;20393;-74
2022/02/13 08:14:47;;;;;;;12.75;6.72;;;;;;;-0.36;67.63;101665.19;5115604;28;20051;-74
2022/02/13 08:17:15;;;;;;;13.65;6.88;;;;;;;-0.28;67.21;101662.63;5097153;28;20051;-74
2022/02/13 08:19:43;;;;;;;16.27;6.82;;;;;;;-0.16;67.02;101660.06;5115539;28;20040;-74
2022/02/13 08:22:11;;;;;;;12.13;7.03;;;;;;;-0.14;66.74;101656.56;5097190;28;20477;-73
2022/02/13 08:24:40;;;;;;;13.10;7.03;;;;;;;-0.09;66.57;101659.25;5115038;28;20047;-73
2022/02/13 08:27:10;;;;;;;13.18;6.68;;;;;;;-0.07;66.26;101655.75;5115668;28;20534;-73
2022/02/13 08:29:38;;;;;;;14.13;6.38;;;;;;;0.17;64.08;101656.72;5097218;28;20051;-74
2022/02/13 08:32:08;;;;;;;13.52;7.18;;;;;;;0.20;64.76;101659.38;5115479;28;20434;-74
2022/02/13 08:34:36;;;;;;;19.48;6.78;;;;;;;0.08;65.39;101648.81;5115015;28;20040;-73
2022/02/13 08:37:05;;;;;;;12.00;6.97;;;;;;;0.21;64.70;101653.28;5115028;28;20036;-74
2022/02/13 08:39:35;;;;;;;12.98;6.32;;;;;;;0.47;63.58;101655.97;5096994;28;20056;-73
2022/02/13 08:42:04;;;;;;;13.85;6.93;;;;;;;0.64;62.98;101649.03;5114924;28;20043;-74
2022/02/13 08:44:36;;;;;;;11.70;5.72;;;;;;;0.69;62.70;101641.19;5115210;28;20051;-74
2022/02/13 08:47:05;;;;;;;13.25;5.85;;;;;;;0.81;61.40;101641.19;5115305;28;20089;-74
2022/02/13 08:49:34;;;;;;;12.60;6.53;;;;;;;0.97;60.28;101643.00;5114960;28;20127;-74
2022/02/13 08:52:04;;;;;;;12.27;6.57;;;;;;;1.06;60.66;101642.09;5114903;28;20070;-74
2022/02/13 08:54:32;;;;;;;12.48;6.18;;;;;;;1.21;59.82;101630.72;5114418;28;20048;-75
2022/02/13 08:57:01;;;;;;;11.40;6.15;;;;;;;1.18;59.64;101639.50;5096683;28;20154;-74
2022/02/13 08:59:29;;;;;;;12.35;6.22;;;;;;;1.29;59.56;101631.59;5114577;28;20035;-75
2022/02/13 09:01:59;;;;;;;12.90;6.13;;;;;;;1.40;59.05;101635.09;5114656;28;20040;-75
2022/02/13 09:04:28;;;;;;;12.27;6.35;;;;;;;1.54;58.91;101635.94;5114340;28;20069;-77
2022/02/13 09:06:56;;;;;;;11.70;6.82;;;;;;;1.53;58.56;101628.94;5114607;28;20479;-74
2022/02/13 09:09:27;;;;;;;11.48;6.28;;;;;;;1.50;58.74;101628.09;5114788;28;20459;-75
2022/02/13 09:11:56;;;;;;;12.32;6.13;;;;;;;1.38;59.83;101623.72;5114706;28;20049;-75
2022/02/13 09:14:24;;;;;;;11.73;6.20;;;;;;;1.39;59.39;101620.22;5114612;28;20127;-74
2022/02/13 09:16:53;;;;;;;10.88;6.18;;;;;;;1.63;59.09;101625.41;5095496;28;20062;-75
2022/02/13 09:19:22;;;;;;;11.13;6.28;;;;;;;1.76;58.36;101620.16;5096619;28;20043;-75
2022/02/13 09:21:52;;;;;;;10.63;5.70;;;;;;;1.69;59.02;101616.66;5113975;28;20503;-75
2022/02/13 09:24:24;;;;;;;13.52;6.75;;;;;;;1.77;59.09;101614.00;5114640;28;20048;-74
2022/02/13 09:26:53;;;;;;;11.35;6.03;;;;;;;1.95;57.85;101617.47;5095715;28;20071;-74
2022/02/13 09:29:21;;;;;;;11.02;5.70;;;;;;;2.19;57.02;101616.50;5114147;28;20116;-74
2022/02/13 09:31:49;;;;;;;8.75;5.32;;;;;;;2.16;56.58;101600.72;5114104;28;20040;-75
2022/02/13 09:34:25;;;;;;;10.73;5.22;;;;;;;2.13;56.89;101608.63;5096241;28;20126;-74
2022/02/13 09:36:55;;;;;;;10.88;5.30;;;;;;;1.90;57.48;101611.31;5095694;28;20104;-75
2022/02/13 09:39:24;;;;;;;10.10;5.38;;;;;;;1.79;58.50;101604.34;5095871;28;20058;-74
2022/02/13 09:41:53;;;;;;;8.98;4.88;;;;;;;2.03;57.91;101604.28;5113909;28;20130;-74
2022/02/13 09:44:23;;;;;;;8.57;5.22;;;;;;;2.15;57.91;101598.97;5113867;28;20040;-74
2022/02/13 09:46:52;;;;;;;10.05;5.13;;;;;;;2.30;57.55;101592.75;5113882;28;20360;-74
2022/02/13 09:49:22;;;;;;;10.45;5.85;;;;;;;2.46;58.92;101594.44;5114165;28;20058;-74
2022/02/13 09:51:50;;;;;;;12.05;6.65;;;;;;;2.42;58.25;101586.56;5113940;28;20101;-75
2022/02/13 09:54:20;;;;;;;13.35;6.10;;;;;;;2.48;58.86;101589.16;5113720;28;20488;-75
2022/02/13 09:56:50;;;;;;;12.07;6.28;;;;;;;2.47;58.89;101582.13;5113711;28;20043;-74
2022/02/13 09:59:19;;;;;;;14.02;6.18;;;;;;;2.54;59.24;101578.59;5113900;28;20050;-75
2022/02/13 10:01:50;;;;;;;11.50;6.30;;;;;;;2.68;58.70;101571.44;5113748;28;20549;-75
2022/02/13 10:04:42;;;;;;;10.70;6.80;;;;;;;2.86;58.67;101579.22;5113512;28;20058;-75
2022/02/13 10:07:17;;;;;;;16.38;6.75;;;;;;;2.74;59.26;101566.16;5113797;28;20438;-75
2022/02/13 10:09:46;;;;;;;14.38;6.50;;;;;;;2.87;59.90;101559.88;5113709;28;20488;-75
2022/02/13 10:12:30;;;;;;;13.68;6.70;;;;;;;3.21;60.10;101554.34;5113653;28;20043;-75
2022/02/13 10:14:58;;;;;;;14.25;7.05;;;;;;;3.16;61.54;101550.88;5113639;28;20085;-74
2022/02/13 10:17:27;;;;;;;15.18;7.50;;;;;;;3.15;62.55;101549.13;5113294;28;20043;-74
2022/02/13 10:19:55;;;;;;;15.32;8.13;;;;;;;3.20;62.79;101547.31;5113111;28;20105;-75
2022/02/13 10:22:36;;;;;;;11.75;7.28;;;;;;;3.50;63.07;101540.00;5095192;28;20047;-73
2022/02/13 10:25:17;;;;;;;13.02;7.22;;;;;;;3.56;63.30;101534.63;5095733;28;20108;-75
2022/02/13 10:27:48;;;;;;;15.23;7.88;;;;;;;3.44;63.67;101525.09;5113291;28;20127;-75
2022/02/13 10:30:35;;;;;;;15.48;7.93;;;;;;;3.48;63.52;101524.19;5116698;28;20050;-75
2022/02/13 10:33:16;;;;;;;12.32;7.45;;;;;;;3.61;63.41;101524.91;5117960;28;20047;-75
2022/02/13 10:36:03;;;;;;;15.00;8.30;;;;;;;3.70;63.20;101519.53;5117574;28;20040;-75
2022/02/13 10:38:36;;;;;;;13.82;7.85;;;;;;;3.61;63.14;101509.09;5117586;28;20541;-75
2022/02/13 10:41:17;;;;;;;14.00;8.30;;;;;;;3.52;63.58;101501.28;5117751;28;20118;-74
2022/02/13 10:44:03;;;;;;;16.67;8.70;;;;;;;3.56;63.40;101500.34;5099559;28;20066;-75
2022/02/13 10:46:33;;;;;;;14.82;8.75;;;;;;;3.64;63.31;101487.94;5117461;28;20473;-75
2022/02/13 10:49:02;;;;;;;16.67;8.70;;;;;;;3.63;63.34;101483.56;5117108;28;20060;-75
2022/02/13 10:51:31;;;;;;;17.23;8.80;;;;;;;3.68;64.06;101484.38;5117004;28;20047;-74
2022/02/13 10:54:02;;;;;;;17.48;8.90;;;;;;;3.87;63.60;101475.34;5117042;28;20055;-73
2022/02/13 10:56:34;;;;;;;13.43;8.02;;;;;;;3.93;63.81;101469.09;5117454;28;20040;-74
2022/02/13 10:59:03;;;;;;;14.13;8.20;;;;;;;3.92;63.34;101465.56;5116637;28;20047;-75
2022/02/13 11:01:33;;;;;;;12.30;7.78;;;;;;;4.08;63.43;101463.59;5116849;28;20484;-74
2022/02/13 11:04:04;;;;;;;16.17;8.25;;;;;;;4.15;63.32;101460.00;5116955;28;20039;-75
2022/02/13 11:06:34;;;;;;;14.57;7.45;;;;;;;4.12;63.25;101467.06;5117249;28;20122;-75
2022/02/13 11:09:09;;;;;;;13.55;7.78;;;;;;;4.09;63.23;101456.56;5098442;28;20052;-75
2022/02/13 11:11:45;;;;;;;15.50;8.10;;;;;;;4.06;63.19;101451.34;5116869;28;20421;-75
2022/02/13 11:14:30;;;;;;;16.40;9.43;;;;;;;3.97;63.11;101449.69;5116636;28;20040;-74
2022/02/13 11:17:03;;;;;;;15.13;8.30;;;;;;;3.98;63.42;101435.59;5098128;28;20146;-76
2022/02/13 11:19:34;;;;;;;17.02;8.70;;;;;;;4.01;63.08;101439.06;5116556;28;20046;-74
2022/02/13 11:22:07;;;;;;;14.15;8.85;;;;;;;3.91;63.56;101432.16;5116461;28;20135;-75
2022/02/13 11:24:37;;;;;;;16.50;8.95;;;;;;;4.02;63.30;101424.94;5098523;28;20101;-74
2022/02/13 11:27:08;;;;;;;17.75;9.73;;;;;;;4.08;62.88;101417.84;5116982;28;20423;-74